Terminal Aerodrome Forecast
Issued by NWS Charleston, WV

Current Version | Previous Version | Graphics & Text | Print | Product List | Glossary On
Versions: 1 2 3 4 5 6 7 8 9 10 11 12 13 14 15 16 17 18 19 20 21 22 23 24 25 26 27 28 29 30
224
FTUS41 KRLX 190901 AAA
TAFEKN
TAF AMD
KEKN 190901Z 1909/2006 27007G15KT 5SM -SHRA BR OVC025
     FM191300 25009G20KT P6SM -SHRA OVC015
     FM191900 31013G23KT P6SM -SHRASN BKN025=

USA.gov is the U.S. government's official web portal to all federal, state and local government web resources and services.